createdAt,value
2018-08-24T00:01:03.524Z,9.77
2018-08-24T00:03:33.600Z,8.07
2018-08-24T00:06:03.708Z,6.83
2018-08-24T00:08:33.821Z,8.77
2018-08-24T00:11:03.909Z,9.87
2018-08-24T00:13:33.948Z,7.83
2018-08-24T00:16:04.092Z,9.37
2018-08-24T00:18:34.168Z,7.73
2018-08-24T00:21:04.288Z,10.70
2018-08-24T00:23:34.385Z,11.80
2018-08-24T00:26:05.233Z,8.40
2018-08-24T00:28:35.361Z,12.13
2018-08-24T00:31:05.521Z,13.37
2018-08-24T00:33:36.343Z,8.07
2018-08-24T00:36:06.408Z,10.30
2018-08-24T00:38:36.832Z,9.07
2018-08-24T00:41:06.897Z,9.00
2018-08-24T00:43:36.976Z,9.87
2018-08-24T00:46:07.100Z,8.70
2018-08-24T00:48:37.856Z,9.27
2018-08-24T00:51:08.560Z,8.73
2018-08-24T00:53:39.936Z,7.50
2018-08-24T00:56:10.876Z,9.77
2018-08-24T00:58:41.196Z,11.20
2018-08-24T01:01:11.536Z,8.70
2018-08-24T01:03:41.616Z,12.30
2018-08-24T01:06:11.799Z,9.07
2018-08-24T01:08:44.452Z,12.13
2018-08-24T01:11:14.601Z,9.50
2018-08-24T01:13:44.733Z,12.93
2018-08-24T01:16:20.780Z,9.20
2018-08-24T01:18:50.852Z,7.83
2018-08-24T01:21:20.948Z,11.87
2018-08-24T01:23:51.492Z,9.60
2018-08-24T01:26:24.950Z,12.43
2018-08-24T01:28:55.140Z,8.30
2018-08-24T01:31:25.237Z,8.70
2018-08-24T01:33:55.380Z,10.00
2018-08-24T01:36:26.069Z,13.67
2018-08-24T01:38:56.124Z,7.53
2018-08-24T01:41:26.544Z,8.67
2018-08-24T01:43:56.624Z,10.57
2018-08-24T01:46:26.708Z,6.90
2018-08-24T01:48:56.802Z,10.23
2018-08-24T01:51:26.887Z,10.23
2018-08-24T01:53:56.960Z,7.47
2018-08-24T01:56:27.012Z,9.37
2018-08-24T01:58:57.127Z,10.23
2018-08-24T02:01:28.602Z,8.63
2018-08-24T02:03:58.656Z,10.80
2018-08-24T02:06:28.736Z,11.33
2018-08-24T02:08:58.804Z,9.60
2018-08-24T02:11:32.852Z,11.77
2018-08-24T02:14:08.292Z,10.47
2018-08-24T02:16:39.524Z,12.90
2018-08-24T02:19:12.508Z,11.90
2018-08-24T02:21:48.025Z,12.20
2018-08-24T02:24:18.136Z,7.90
2018-08-24T02:26:48.196Z,13.10
2018-08-24T02:29:18.884Z,10.13
2018-08-24T02:31:50.844Z,8.23
2018-08-24T02:34:20.911Z,11.63
2018-08-24T02:36:51.007Z,11.23
2018-08-24T02:39:21.078Z,12.70
2018-08-24T02:41:51.277Z,13.40
2018-08-24T02:44:21.380Z,9.77
2018-08-24T02:46:52.242Z,9.77
2018-08-24T02:49:22.309Z,9.13
2018-08-24T02:51:52.416Z,14.03
2018-08-24T02:54:22.539Z,9.20
2018-08-24T02:56:52.655Z,13.13
2018-08-24T02:59:22.764Z,12.40
2018-08-24T03:01:54.009Z,13.93
2018-08-24T03:04:25.332Z,12.37
2018-08-24T03:06:55.479Z,12.53
2018-08-24T03:09:27.052Z,13.77
2018-08-24T03:11:57.780Z,12.40
2018-08-24T03:14:28.480Z,11.70
2018-08-24T03:17:04.507Z,16.20
2018-08-24T03:19:36.440Z,16.13
2018-08-24T03:22:13.413Z,14.13
2018-08-24T03:24:43.549Z,10.90
2018-08-24T03:27:13.716Z,14.37
2018-08-24T03:29:44.484Z,14.53
2018-08-24T03:32:14.630Z,12.47
2018-08-24T03:34:44.817Z,15.50
2018-08-24T03:37:14.984Z,14.70
2018-08-24T03:39:45.772Z,14.90
2018-08-24T03:42:16.019Z,22.00
2018-08-24T03:44:46.844Z,16.33
2018-08-24T03:47:17.645Z,12.87
2018-08-24T03:49:47.897Z,16.53
2018-08-24T03:52:19.526Z,10.27
2018-08-24T03:54:49.680Z,13.43
2018-08-24T03:57:19.802Z,17.03
2018-08-24T03:59:50.952Z,12.93
2018-08-24T04:02:22.667Z,16.23
2018-08-24T04:04:53.902Z,14.27
2018-08-24T04:07:25.093Z,12.03
2018-08-24T04:09:55.852Z,12.03
2018-08-24T04:12:25.940Z,15.73
2018-08-24T04:14:57.304Z,11.43
2018-08-24T04:17:35.558Z,14.30
2018-08-24T04:20:05.917Z,11.67
2018-08-24T04:22:36.117Z,15.03
2018-08-24T04:25:07.205Z,12.43
2018-08-24T04:27:39.554Z,11.00
2018-08-24T04:30:10.535Z,13.47
2018-08-24T04:32:41.521Z,13.60
2018-08-24T04:35:12.184Z,12.13
2018-08-24T04:37:43.952Z,12.10
2018-08-24T04:40:14.120Z,10.77
2018-08-24T04:42:44.744Z,8.27
2018-08-24T04:45:16.134Z,12.80
2018-08-24T04:47:47.166Z,14.50
2018-08-24T04:50:17.336Z,17.40
2018-08-24T04:52:48.016Z,9.10
2018-08-24T04:55:18.917Z,18.00
2018-08-24T04:57:49.731Z,17.17
2018-08-24T05:00:19.856Z,15.27
2018-08-24T05:02:50.494Z,13.40
2018-08-24T05:05:20.628Z,13.83
2018-08-24T05:07:52.060Z,14.13
2018-08-24T05:10:22.228Z,11.20
2018-08-24T05:12:52.799Z,13.23
2018-08-24T05:15:24.152Z,10.37
2018-08-24T05:17:54.377Z,12.30
2018-08-24T05:20:24.553Z,10.47
2018-08-24T05:22:56.253Z,11.73
2018-08-24T05:25:27.261Z,13.00
2018-08-24T05:27:58.080Z,10.27
2018-08-24T05:30:29.513Z,11.80
2018-08-24T05:33:00.356Z,8.37
2018-08-24T05:35:31.339Z,12.40
2018-08-24T05:38:01.503Z,10.57
2018-08-24T05:40:31.661Z,8.90
2018-08-24T05:43:03.028Z,14.00
2018-08-24T05:45:33.593Z,8.77
2018-08-24T05:48:03.796Z,7.47
2018-08-24T05:50:34.573Z,9.67
2018-08-24T05:53:05.212Z,7.90
2018-08-24T05:55:35.424Z,8.17
2018-08-24T05:58:05.605Z,8.93
2018-08-24T06:00:44.922Z,8.13
2018-08-24T06:03:15.112Z,9.77
2018-08-24T06:05:50.677Z,9.90
2018-08-24T06:08:20.744Z,7.97
2018-08-24T06:10:50.900Z,6.57
2018-08-24T06:13:21.482Z,11.10
2018-08-24T06:15:51.722Z,6.80
2018-08-24T06:18:21.937Z,9.13
2018-08-24T06:20:52.121Z,9.57
2018-08-24T06:23:22.294Z,7.43
2018-08-24T06:25:52.509Z,6.57
2018-08-24T06:28:22.711Z,10.30
2018-08-24T06:30:52.868Z,9.43
2018-08-24T06:33:23.731Z,7.57
2018-08-24T06:35:54.095Z,5.87
2018-08-24T06:38:24.260Z,8.93
2018-08-24T06:40:54.392Z,9.37
2018-08-24T06:43:24.524Z,11.10
2018-08-24T06:45:54.673Z,8.83
2018-08-24T06:48:24.872Z,5.83
2018-08-24T06:50:55.024Z,8.37
2018-08-24T06:53:25.260Z,9.00
2018-08-24T06:55:55.292Z,7.60
2018-08-24T06:58:25.448Z,6.87
2018-08-24T07:00:55.652Z,8.23
2018-08-24T07:03:25.813Z,7.23
2018-08-24T07:05:56.117Z,8.10
2018-08-24T07:08:26.288Z,6.70
2018-08-24T07:10:56.461Z,10.80
2018-08-24T07:13:26.684Z,7.53
2018-08-24T07:15:56.926Z,8.93
2018-08-24T07:18:27.132Z,8.97
2018-08-24T07:20:57.324Z,8.57
2018-08-24T07:23:27.412Z,6.47
2018-08-24T07:25:57.592Z,9.40
2018-08-24T07:28:27.784Z,10.90
2018-08-24T07:30:57.912Z,5.50
2018-08-24T07:33:28.145Z,6.87
2018-08-24T07:35:58.368Z,10.60
2018-08-24T07:38:28.535Z,8.63
2018-08-24T07:40:58.696Z,8.23
2018-08-24T07:43:28.866Z,8.73
2018-08-24T07:45:59.112Z,7.30
2018-08-24T07:48:29.292Z,8.83
2018-08-24T07:50:59.540Z,8.23
2018-08-24T07:53:29.717Z,9.40
2018-08-24T07:55:59.995Z,7.90
2018-08-24T07:58:30.245Z,11.97
2018-08-24T08:01:00.441Z,9.70
2018-08-24T08:03:30.576Z,7.37
2018-08-24T08:06:00.766Z,7.60
2018-08-24T08:08:37.552Z,7.07
2018-08-24T08:11:07.684Z,7.87
2018-08-24T08:13:37.808Z,6.80
2018-08-24T08:16:08.004Z,12.27
2018-08-24T08:18:38.188Z,8.03
2018-08-24T08:21:08.401Z,11.53
2018-08-24T08:23:38.621Z,7.23
2018-08-24T08:26:08.800Z,7.43
2018-08-24T08:28:39.016Z,8.60
2018-08-24T08:31:09.145Z,7.37
2018-08-24T08:33:39.346Z,10.43
2018-08-24T08:36:09.481Z,10.40
2018-08-24T08:38:39.664Z,6.37
2018-08-24T08:41:09.861Z,5.47
2018-08-24T08:43:40.069Z,6.97
2018-08-24T08:46:10.238Z,7.00
2018-08-24T08:48:40.325Z,8.40
2018-08-24T08:51:10.461Z,7.93
2018-08-24T08:53:40.604Z,5.53
2018-08-24T08:56:10.799Z,5.80
2018-08-24T08:58:40.928Z,5.13
2018-08-24T09:01:11.115Z,5.50
2018-08-24T09:03:41.312Z,5.97
2018-08-24T09:06:11.640Z,6.60
2018-08-24T09:08:41.714Z,4.83
2018-08-24T09:11:11.885Z,4.33
2018-08-24T09:13:42.170Z,4.03
2018-08-24T09:16:12.335Z,7.87
2018-08-24T09:18:47.641Z,6.70
2018-08-24T09:21:23.049Z,5.07
2018-08-24T09:23:58.529Z,5.87
2018-08-24T09:26:33.887Z,5.57
2018-08-24T09:29:07.813Z,3.90
2018-08-24T09:31:39.370Z,6.37
2018-08-24T09:34:09.609Z,6.30
2018-08-24T09:36:39.802Z,4.97
2018-08-24T09:39:09.992Z,4.97
2018-08-24T09:41:40.112Z,4.77
2018-08-24T09:44:10.319Z,4.00
2018-08-24T09:46:45.584Z,5.03
2018-08-24T09:49:21.112Z,7.03
2018-08-24T09:51:51.299Z,5.87
2018-08-24T09:54:21.587Z,4.23
2018-08-24T09:56:51.902Z,5.53
2018-08-24T09:59:22.078Z,3.83
2018-08-24T10:01:57.609Z,5.90
2018-08-24T10:04:32.931Z,3.83
2018-08-24T10:07:08.393Z,3.57
2018-08-24T10:09:38.516Z,5.97
2018-08-24T10:12:08.680Z,3.40
2018-08-24T10:14:38.800Z,5.53
2018-08-24T10:17:08.950Z,7.40
2018-08-24T10:19:39.125Z,5.23
2018-08-24T10:22:09.330Z,6.13
2018-08-24T10:24:39.522Z,6.63
2018-08-24T10:27:09.704Z,4.33
2018-08-24T10:29:39.933Z,4.63
2018-08-24T10:32:10.062Z,4.63
2018-08-24T10:34:40.240Z,4.40
2018-08-24T10:37:10.551Z,5.90
2018-08-24T10:39:40.732Z,5.63
2018-08-24T10:42:10.820Z,5.33
2018-08-24T10:44:40.961Z,5.13
2018-08-24T10:47:11.760Z,5.77
2018-08-24T10:49:41.945Z,5.97
2018-08-24T10:52:12.357Z,7.20
2018-08-24T10:54:42.582Z,5.63
2018-08-24T10:57:12.787Z,6.50
2018-08-24T10:59:42.977Z,4.63
2018-08-24T11:02:13.243Z,5.20
2018-08-24T11:04:43.344Z,6.63
2018-08-24T11:07:13.580Z,4.80
2018-08-24T11:09:43.659Z,6.83
2018-08-24T11:12:15.802Z,6.13
2018-08-24T11:14:46.486Z,6.33
2018-08-24T11:17:16.704Z,6.33
2018-08-24T11:19:46.868Z,5.40
2018-08-24T11:22:17.087Z,4.33
2018-08-24T11:24:47.229Z,4.87
2018-08-24T11:27:17.368Z,4.37
2018-08-24T11:29:47.526Z,6.43
2018-08-24T11:32:17.717Z,5.40
2018-08-24T11:34:48.004Z,5.00
2018-08-24T11:37:18.159Z,5.70
2018-08-24T11:39:48.347Z,5.77
2018-08-24T11:42:18.537Z,5.07
2018-08-24T11:44:48.705Z,6.10
2018-08-24T11:47:19.776Z,4.40
2018-08-24T11:49:51.412Z,5.73
2018-08-24T11:52:22.297Z,3.90
2018-08-24T11:54:52.428Z,5.43
2018-08-24T11:57:22.624Z,5.77
2018-08-24T11:59:52.856Z,6.00
2018-08-24T12:02:23.025Z,5.13
2018-08-24T12:04:53.220Z,5.27
2018-08-24T12:07:23.389Z,6.90
2018-08-24T12:09:53.642Z,6.67
2018-08-24T12:12:23.847Z,5.00
2018-08-24T12:14:54.059Z,6.97
2018-08-24T12:17:28.712Z,4.97
2018-08-24T12:19:58.896Z,6.43
2018-08-24T12:22:29.162Z,4.93
2018-08-24T12:24:59.331Z,9.17
2018-08-24T12:27:29.513Z,7.57
2018-08-24T12:29:59.676Z,6.53
2018-08-24T12:32:29.932Z,11.80
2018-08-24T12:35:00.228Z,8.13
2018-08-24T12:37:34.661Z,9.73
2018-08-24T12:40:04.940Z,6.93
2018-08-24T12:42:35.129Z,5.37
2018-08-24T12:45:05.436Z,6.03
2018-08-24T12:47:35.576Z,6.77
2018-08-24T12:50:06.060Z,5.30
2018-08-24T12:52:36.199Z,7.07
2018-08-24T12:55:06.600Z,6.40
2018-08-24T12:57:36.773Z,6.53
2018-08-24T13:00:07.080Z,13.17
2018-08-24T13:02:37.204Z,6.00
2018-08-24T13:05:07.479Z,5.60
2018-08-24T13:07:37.668Z,8.97
2018-08-24T13:10:07.912Z,5.83
2018-08-24T13:12:38.117Z,6.80
2018-08-24T13:15:08.461Z,8.87
2018-08-24T13:17:38.580Z,9.07
2018-08-24T13:20:08.834Z,9.60
2018-08-24T13:22:38.996Z,10.13
2018-08-24T13:25:09.243Z,9.90
2018-08-24T13:27:39.340Z,11.10
2018-08-24T13:30:09.568Z,11.30
2018-08-24T13:32:39.729Z,7.67
2018-08-24T13:35:09.928Z,8.97
2018-08-24T13:37:40.092Z,8.83
2018-08-24T13:40:10.285Z,10.70
2018-08-24T13:42:40.428Z,8.60
2018-08-24T13:45:10.752Z,9.47
2018-08-24T13:47:40.908Z,12.23
2018-08-24T13:50:11.088Z,14.33
2018-08-24T13:52:41.383Z,14.17
2018-08-24T13:55:11.614Z,16.10
2018-08-24T13:57:41.767Z,17.50
2018-08-24T14:00:12.016Z,13.57
2018-08-24T14:02:42.204Z,16.30
2018-08-24T14:05:12.473Z,16.83
2018-08-24T14:07:42.653Z,20.23
2018-08-24T14:10:12.857Z,16.80
2018-08-24T14:12:43.032Z,17.90
2018-08-24T14:15:13.224Z,18.53
2018-08-24T14:17:47.584Z,19.57
2018-08-24T14:20:17.701Z,17.03
2018-08-24T14:22:47.858Z,17.47
2018-08-24T14:25:19.066Z,17.77
2018-08-24T14:27:49.306Z,14.50
2018-08-24T14:30:19.489Z,14.83
2018-08-24T14:32:49.743Z,14.73
2018-08-24T14:35:19.953Z,13.03
2018-08-24T14:37:50.135Z,10.97
2018-08-24T14:40:20.341Z,9.60
2018-08-24T14:42:50.552Z,9.43
2018-08-24T14:45:20.718Z,7.97
2018-08-24T14:47:50.991Z,9.10
2018-08-24T14:50:21.194Z,8.20
2018-08-24T14:52:51.369Z,7.53
2018-08-24T14:55:21.601Z,7.90
2018-08-24T14:57:51.885Z,5.93
2018-08-24T15:00:22.004Z,6.80
2018-08-24T15:02:52.312Z,7.30
2018-08-24T15:05:22.490Z,8.30
2018-08-24T15:07:52.757Z,12.50
2018-08-24T15:10:22.983Z,7.30
2018-08-24T15:12:53.101Z,6.43
2018-08-24T15:15:23.269Z,11.03
2018-08-24T15:17:53.440Z,7.93
2018-08-24T15:20:23.541Z,9.93
2018-08-24T15:22:53.747Z,10.13
2018-08-24T15:25:23.912Z,13.63
2018-08-24T15:27:54.034Z,16.33
2018-08-24T15:30:24.224Z,12.80
2018-08-24T15:32:54.338Z,15.40
2018-08-24T15:35:24.564Z,14.57
2018-08-24T15:37:54.731Z,15.57
2018-08-24T15:40:24.893Z,12.37
2018-08-24T15:42:55.058Z,13.90
2018-08-24T15:45:25.242Z,14.27
2018-08-24T15:47:55.481Z,17.33
2018-08-24T15:50:25.665Z,18.17
2018-08-24T15:52:55.843Z,12.60
2018-08-24T15:55:25.981Z,12.90
2018-08-24T15:57:56.215Z,11.93
2018-08-24T16:00:26.372Z,10.83
2018-08-24T16:02:56.565Z,10.87
2018-08-24T16:05:26.712Z,12.30
2018-08-24T16:07:56.908Z,12.70
2018-08-24T16:10:27.092Z,11.97
2018-08-24T16:12:57.230Z,13.07
2018-08-24T16:15:27.412Z,12.17
2018-08-24T16:18:02.963Z,13.40
2018-08-24T16:20:33.200Z,11.67
2018-08-24T16:23:03.413Z,15.93
2018-08-24T16:25:33.610Z,11.23
2018-08-24T16:28:03.776Z,11.07
2018-08-24T16:30:33.936Z,12.27
2018-08-24T16:33:04.131Z,12.17
2018-08-24T16:35:34.203Z,8.67
2018-08-24T16:38:04.352Z,12.53
2018-08-24T16:40:34.546Z,10.50
2018-08-24T16:43:04.734Z,9.10
2018-08-24T16:45:34.828Z,11.07
2018-08-24T16:48:05.053Z,8.60
2018-08-24T16:50:35.181Z,11.43
2018-08-24T16:53:05.329Z,11.80
2018-08-24T16:55:35.442Z,11.40
2018-08-24T16:58:05.767Z,13.40
2018-08-24T17:00:35.848Z,27.27
2018-08-24T17:03:06.151Z,41.77
2018-08-24T17:05:36.319Z,30.50
2018-08-24T17:08:06.677Z,22.10
2018-08-24T17:10:36.816Z,15.30
2018-08-24T17:13:07.029Z,21.63
2018-08-24T17:15:37.254Z,16.13
2018-08-24T17:18:07.772Z,10.30
2018-08-24T17:20:38.324Z,8.03
2018-08-24T17:23:08.488Z,7.50
2018-08-24T17:25:38.760Z,8.63
2018-08-24T17:28:08.950Z,9.57
2018-08-24T17:30:39.156Z,7.67
2018-08-24T17:33:09.325Z,11.53
2018-08-24T17:35:39.608Z,5.53
2018-08-24T17:38:09.792Z,6.83
2018-08-24T17:40:39.945Z,4.93
2018-08-24T17:43:10.056Z,6.23
2018-08-24T17:45:40.223Z,6.83
2018-08-24T17:48:10.490Z,9.00
2018-08-24T17:50:40.539Z,4.73
2018-08-24T17:53:10.765Z,2.80
2018-08-24T17:55:40.937Z,3.83
2018-08-24T17:58:11.115Z,6.27
2018-08-24T18:00:41.293Z,6.43
2018-08-24T18:03:11.409Z,4.03
2018-08-24T18:05:41.543Z,6.07
2018-08-24T18:08:11.681Z,4.53
2018-08-24T18:10:41.826Z,4.73
2018-08-24T18:13:11.968Z,4.77
2018-08-24T18:15:42.089Z,4.60
2018-08-24T18:18:12.137Z,4.37
2018-08-24T18:20:42.260Z,6.60
2018-08-24T18:23:12.566Z,4.17
2018-08-24T18:25:42.789Z,3.90
2018-08-24T18:28:12.953Z,4.73
2018-08-24T18:30:43.154Z,3.17
2018-08-24T18:33:13.282Z,4.57
2018-08-24T18:35:43.415Z,4.47
2018-08-24T18:38:13.573Z,3.33
2018-08-24T18:40:43.704Z,4.13
2018-08-24T18:43:13.801Z,4.03
2018-08-24T18:45:44.005Z,3.13
2018-08-24T18:48:14.101Z,3.40
2018-08-24T18:50:44.243Z,3.40
2018-08-24T18:53:14.329Z,5.40
2018-08-24T18:55:44.433Z,4.03
2018-08-24T18:58:14.491Z,4.57
2018-08-24T19:00:44.524Z,3.57
2018-08-24T19:03:14.624Z,3.60
2018-08-24T19:05:44.663Z,3.60
2018-08-24T19:08:14.709Z,4.03
2018-08-24T19:10:49.985Z,4.80
2018-08-24T19:13:20.054Z,3.00
2018-08-24T19:15:50.112Z,3.93
2018-08-24T19:18:25.529Z,3.17
2018-08-24T19:21:00.794Z,3.27
2018-08-24T19:23:30.884Z,4.97
2018-08-24T19:26:00.941Z,3.50
2018-08-24T19:28:36.288Z,6.27
2018-08-24T19:31:06.376Z,3.93
2018-08-24T19:33:36.448Z,4.77
2018-08-24T19:36:06.632Z,4.77
2018-08-24T19:38:36.781Z,5.50
2018-08-24T19:41:12.224Z,7.37
2018-08-24T19:43:42.298Z,4.53
2018-08-24T19:46:12.341Z,5.13
2018-08-24T19:48:47.509Z,5.93
2018-08-24T19:51:17.604Z,6.33
2018-08-24T19:53:47.653Z,6.63
2018-08-24T19:56:17.704Z,5.83
2018-08-24T19:58:53.021Z,4.83
2018-08-24T20:01:23.092Z,4.70
2018-08-24T20:03:53.157Z,5.30
2018-08-24T20:06:28.439Z,4.70
2018-08-24T20:09:03.710Z,7.37
2018-08-24T20:11:33.836Z,6.03
2018-08-24T20:14:03.973Z,4.23
2018-08-24T20:16:39.278Z,6.60
2018-08-24T20:19:09.352Z,4.67
2018-08-24T20:21:39.432Z,6.47
2018-08-24T20:24:09.531Z,6.13
2018-08-24T20:26:39.560Z,5.37
2018-08-24T20:29:09.614Z,6.30
2018-08-24T20:31:39.687Z,6.50
2018-08-24T20:34:09.713Z,6.47
2018-08-24T20:36:39.744Z,7.07
2018-08-24T20:39:10.827Z,7.07
2018-08-24T20:41:41.389Z,7.33
2018-08-24T20:44:11.475Z,8.73
2018-08-24T20:46:41.536Z,8.20
2018-08-24T20:49:11.609Z,8.90
2018-08-24T20:51:41.689Z,9.33
2018-08-24T20:54:11.800Z,8.27
2018-08-24T20:56:41.884Z,9.30
2018-08-24T20:59:11.924Z,6.40
2018-08-24T21:01:42.040Z,8.27
2018-08-24T21:04:12.204Z,9.67
2018-08-24T21:06:42.372Z,9.03
2018-08-24T21:09:12.438Z,8.50
2018-08-24T21:11:42.557Z,7.33
2018-08-24T21:14:12.677Z,8.47
2018-08-24T21:16:42.782Z,7.30
2018-08-24T21:19:12.852Z,7.00
2018-08-24T21:21:42.885Z,7.70
2018-08-24T21:24:12.952Z,8.57
2018-08-24T21:26:43.064Z,7.70
2018-08-24T21:29:13.153Z,7.97
2018-08-24T21:31:43.164Z,8.50
2018-08-24T21:34:13.372Z,6.67
2018-08-24T21:36:43.482Z,7.43
2018-08-24T21:39:13.520Z,6.57
2018-08-24T21:41:43.560Z,6.07
2018-08-24T21:44:13.616Z,8.40
2018-08-24T21:46:43.666Z,8.17
2018-08-24T21:49:13.720Z,8.13
2018-08-24T21:51:43.788Z,11.10
2018-08-24T21:54:13.860Z,6.73
2018-08-24T21:56:43.900Z,7.10
2018-08-24T21:59:13.985Z,7.27
2018-08-24T22:01:44.028Z,7.20
2018-08-24T22:04:14.103Z,7.73
2018-08-24T22:06:44.172Z,6.57
2018-08-24T22:09:14.368Z,8.53
2018-08-24T22:11:44.424Z,6.97
2018-08-24T22:14:14.508Z,7.00
2018-08-24T22:16:44.528Z,6.33
2018-08-24T22:19:14.590Z,5.83
2018-08-24T22:21:44.661Z,5.90
2018-08-24T22:24:14.693Z,6.80
2018-08-24T22:26:44.768Z,8.23
2018-08-24T22:29:14.856Z,5.37
2018-08-24T22:31:44.900Z,5.43
2018-08-24T22:34:14.889Z,6.53
2018-08-24T22:36:44.952Z,5.43
2018-08-24T22:39:15.040Z,5.40
2018-08-24T22:41:45.009Z,6.67
2018-08-24T22:44:15.093Z,6.17
2018-08-24T22:46:45.168Z,6.80
2018-08-24T22:49:15.228Z,4.60
2018-08-24T22:51:45.300Z,4.40
2018-08-24T22:54:15.400Z,5.73
2018-08-24T22:56:45.516Z,5.27
2018-08-24T22:59:15.589Z,4.70
2018-08-24T23:01:45.633Z,4.73
2018-08-24T23:04:15.676Z,4.13
2018-08-24T23:06:45.796Z,4.27
2018-08-24T23:09:15.868Z,4.77
2018-08-24T23:11:45.995Z,5.70
2018-08-24T23:14:16.040Z,3.87
2018-08-24T23:16:46.112Z,4.67
2018-08-24T23:19:16.185Z,3.63
2018-08-24T23:21:46.256Z,3.80
2018-08-24T23:24:16.343Z,4.67
2018-08-24T23:26:46.413Z,4.53
2018-08-24T23:29:16.540Z,4.17
2018-08-24T23:31:46.561Z,7.57
2018-08-24T23:34:16.580Z,4.03
2018-08-24T23:36:46.652Z,4.10
2018-08-24T23:39:16.693Z,3.60
2018-08-24T23:41:46.752Z,3.67
2018-08-24T23:44:16.876Z,4.47
2018-08-24T23:46:46.897Z,6.83
2018-08-24T23:49:16.971Z,4.20
2018-08-24T23:51:47.048Z,4.83
2018-08-24T23:54:17.123Z,4.87
2018-08-24T23:56:47.132Z,3.97
2018-08-24T23:59:17.217Z,3.77
